sensor_id;sensor_type;location;lat;lon;timestamp;P1;durP1;ratioP1;P2;durP2;ratioP2
61397;SDS011;47267;48.130;-2.040;2024-03-22T00:01:46;2.60;;;2.30;;
61397;SDS011;47267;48.130;-2.040;2024-03-22T00:04:12;2.30;;;2.00;;
61397;SDS011;47267;48.130;-2.040;2024-03-22T00:06:39;2.60;;;2.10;;
61397;SDS011;47267;48.130;-2.040;2024-03-22T00:09:09;2.40;;;1.88;;
61397;SDS011;47267;48.130;-2.040;2024-03-22T00:11:35;2.70;;;1.80;;
61397;SDS011;47267;48.130;-2.040;2024-03-22T00:14:01;2.63;;;2.13;;
61397;SDS011;47267;48.130;-2.040;2024-03-22T00:16:28;2.88;;;1.90;;
61397;SDS011;47267;48.130;-2.040;2024-03-22T00:18:53;2.50;;;1.90;;
61397;SDS011;47267;48.130;-2.040;2024-03-22T00:21:20;2.63;;;2.03;;
61397;SDS011;47267;48.130;-2.040;2024-03-22T00:23:46;2.20;;;1.80;;
61397;SDS011;47267;48.130;-2.040;2024-03-22T00:26:12;2.05;;;1.65;;
61397;SDS011;47267;48.130;-2.040;2024-03-22T00:28:38;2.60;;;1.83;;
61397;SDS011;47267;48.130;-2.040;2024-03-22T00:31:04;2.53;;;1.98;;
61397;SDS011;47267;48.130;-2.040;2024-03-22T00:33:30;2.30;;;2.08;;
61397;SDS011;47267;48.130;-2.040;2024-03-22T00:35:56;1.90;;;1.35;;
61397;SDS011;47267;48.130;-2.040;2024-03-22T00:38:22;2.28;;;1.88;;
61397;SDS011;47267;48.130;-2.040;2024-03-22T00:40:48;2.72;;;1.80;;
61397;SDS011;47267;48.130;-2.040;2024-03-22T00:43:14;2.65;;;1.80;;
61397;SDS011;47267;48.130;-2.040;2024-03-22T00:45:39;3.28;;;2.10;;
61397;SDS011;47267;48.130;-2.040;2024-03-22T00:48:06;3.22;;;1.98;;
61397;SDS011;47267;48.130;-2.040;2024-03-22T00:50:32;2.20;;;1.83;;
61397;SDS011;47267;48.130;-2.040;2024-03-22T00:52:58;2.15;;;1.80;;
61397;SDS011;47267;48.130;-2.040;2024-03-22T00:55:23;1.70;;;1.48;;
61397;SDS011;47267;48.130;-2.040;2024-03-22T00:57:49;2.45;;;1.92;;
61397;SDS011;47267;48.130;-2.040;2024-03-22T01:00:17;2.25;;;1.80;;
61397;SDS011;47267;48.130;-2.040;2024-03-22T01:02:43;1.95;;;1.75;;
61397;SDS011;47267;48.130;-2.040;2024-03-22T01:05:09;1.98;;;1.70;;
61397;SDS011;47267;48.130;-2.040;2024-03-22T01:07:35;2.10;;;1.90;;
61397;SDS011;47267;48.130;-2.040;2024-03-22T01:10:01;2.00;;;1.63;;
61397;SDS011;47267;48.130;-2.040;2024-03-22T01:12:30;1.98;;;1.70;;
61397;SDS011;47267;48.130;-2.040;2024-03-22T01:14:56;2.97;;;1.70;;
61397;SDS011;47267;48.130;-2.040;2024-03-22T01:17:22;2.65;;;1.90;;
61397;SDS011;47267;48.130;-2.040;2024-03-22T01:19:47;2.45;;;1.65;;
61397;SDS011;47267;48.130;-2.040;2024-03-22T01:22:13;2.03;;;1.80;;
61397;SDS011;47267;48.130;-2.040;2024-03-22T01:24:39;2.10;;;1.70;;
61397;SDS011;47267;48.130;-2.040;2024-03-22T01:27:05;2.88;;;2.03;;
61397;SDS011;47267;48.130;-2.040;2024-03-22T01:29:30;2.60;;;1.60;;
61397;SDS011;47267;48.130;-2.040;2024-03-22T01:31:57;2.20;;;1.70;;
61397;SDS011;47267;48.130;-2.040;2024-03-22T01:34:24;2.70;;;1.80;;
61397;SDS011;47267;48.130;-2.040;2024-03-22T01:36:50;2.13;;;1.70;;
61397;SDS011;47267;48.130;-2.040;2024-03-22T01:39:19;1.90;;;1.70;;
61397;SDS011;47267;48.130;-2.040;2024-03-22T01:41:49;2.83;;;1.60;;
61397;SDS011;47267;48.130;-2.040;2024-03-22T01:44:15;2.00;;;1.60;;
61397;SDS011;47267;48.130;-2.040;2024-03-22T01:46:42;1.73;;;1.52;;
61397;SDS011;47267;48.130;-2.040;2024-03-22T01:49:09;2.30;;;1.50;;
61397;SDS011;47267;48.130;-2.040;2024-03-22T01:51:36;1.92;;;1.63;;
61397;SDS011;47267;48.130;-2.040;2024-03-22T01:54:02;2.03;;;1.50;;
61397;SDS011;47267;48.130;-2.040;2024-03-22T01:56:29;3.88;;;1.80;;
61397;SDS011;47267;48.130;-2.040;2024-03-22T01:58:55;2.53;;;1.75;;
61397;SDS011;47267;48.130;-2.040;2024-03-22T02:01:22;1.80;;;1.48;;
61397;SDS011;47267;48.130;-2.040;2024-03-22T02:03:48;1.50;;;1.40;;
61397;SDS011;47267;48.130;-2.040;2024-03-22T02:06:14;1.73;;;1.58;;
61397;SDS011;47267;48.130;-2.040;2024-03-22T02:08:40;2.80;;;1.88;;
61397;SDS011;47267;48.130;-2.040;2024-03-22T02:11:07;2.05;;;1.70;;
61397;SDS011;47267;48.130;-2.040;2024-03-22T02:13:34;2.10;;;1.58;;
61397;SDS011;47267;48.130;-2.040;2024-03-22T02:16:02;2.03;;;1.70;;
61397;SDS011;47267;48.130;-2.040;2024-03-22T02:18:28;2.00;;;1.70;;
61397;SDS011;47267;48.130;-2.040;2024-03-22T02:20:57;3.20;;;1.90;;
61397;SDS011;47267;48.130;-2.040;2024-03-22T02:23:28;1.52;;;1.23;;
61397;SDS011;47267;48.130;-2.040;2024-03-22T02:25:58;2.15;;;1.70;;
61397;SDS011;47267;48.130;-2.040;2024-03-22T02:28:25;1.88;;;1.50;;
61397;SDS011;47267;48.130;-2.040;2024-03-22T02:30:50;2.42;;;1.58;;
61397;SDS011;47267;48.130;-2.040;2024-03-22T02:33:16;2.47;;;1.60;;
61397;SDS011;47267;48.130;-2.040;2024-03-22T02:35:42;1.40;;;1.30;;
61397;SDS011;47267;48.130;-2.040;2024-03-22T02:38:08;2.03;;;1.70;;
61397;SDS011;47267;48.130;-2.040;2024-03-22T02:40:34;1.80;;;1.52;;
61397;SDS011;47267;48.130;-2.040;2024-03-22T02:42:59;1.83;;;1.60;;
61397;SDS011;47267;48.130;-2.040;2024-03-22T02:45:25;2.20;;;1.90;;
61397;SDS011;47267;48.130;-2.040;2024-03-22T02:47:51;1.58;;;1.40;;
61397;SDS011;47267;48.130;-2.040;2024-03-22T02:50:16;1.90;;;1.67;;
61397;SDS011;47267;48.130;-2.040;2024-03-22T02:52:42;1.70;;;1.30;;
61397;SDS011;47267;48.130;-2.040;2024-03-22T02:55:08;1.80;;;1.45;;
61397;SDS011;47267;48.130;-2.040;2024-03-22T02:57:33;2.10;;;1.58;;
61397;SDS011;47267;48.130;-2.040;2024-03-22T03:00:02;2.00;;;1.50;;
61397;SDS011;47267;48.130;-2.040;2024-03-22T03:02:28;2.38;;;1.83;;
61397;SDS011;47267;48.130;-2.040;2024-03-22T03:04:54;1.90;;;1.30;;
61397;SDS011;47267;48.130;-2.040;2024-03-22T03:07:20;1.42;;;1.30;;
61397;SDS011;47267;48.130;-2.040;2024-03-22T03:09:45;1.52;;;1.33;;
61397;SDS011;47267;48.130;-2.040;2024-03-22T03:12:11;1.98;;;1.65;;
61397;SDS011;47267;48.130;-2.040;2024-03-22T03:14:36;1.60;;;1.23;;
61397;SDS011;47267;48.130;-2.040;2024-03-22T03:17:02;1.38;;;1.20;;
61397;SDS011;47267;48.130;-2.040;2024-03-22T03:19:28;1.60;;;1.40;;
61397;SDS011;47267;48.130;-2.040;2024-03-22T03:21:54;1.70;;;1.40;;
61397;SDS011;47267;48.130;-2.040;2024-03-22T03:24:19;1.58;;;1.30;;
61397;SDS011;47267;48.130;-2.040;2024-03-22T03:26:45;1.85;;;1.40;;
61397;SDS011;47267;48.130;-2.040;2024-03-22T03:29:11;1.63;;;1.40;;
61397;SDS011;47267;48.130;-2.040;2024-03-22T03:31:37;1.75;;;1.23;;
61397;SDS011;47267;48.130;-2.040;2024-03-22T03:34:02;1.35;;;1.20;;
61397;SDS011;47267;48.130;-2.040;2024-03-22T03:36:28;1.70;;;1.30;;
61397;SDS011;47267;48.130;-2.040;2024-03-22T03:38:53;1.40;;;1.30;;
61397;SDS011;47267;48.130;-2.040;2024-03-22T03:41:19;2.30;;;1.40;;
61397;SDS011;47267;48.130;-2.040;2024-03-22T03:43:45;1.65;;;0.90;;
61397;SDS011;47267;48.130;-2.040;2024-03-22T03:46:10;1.90;;;1.20;;
61397;SDS011;47267;48.130;-2.040;2024-03-22T03:48:36;1.92;;;1.48;;
61397;SDS011;47267;48.130;-2.040;2024-03-22T03:51:02;2.05;;;1.40;;
61397;SDS011;47267;48.130;-2.040;2024-03-22T03:53:29;1.40;;;1.15;;
61397;SDS011;47267;48.130;-2.040;2024-03-22T03:55:55;1.52;;;1.30;;
61397;SDS011;47267;48.130;-2.040;2024-03-22T03:58:21;1.38;;;1.20;;
61397;SDS011;47267;48.130;-2.040;2024-03-22T04:00:47;1.33;;;1.13;;
61397;SDS011;47267;48.130;-2.040;2024-03-22T04:03:12;2.10;;;1.30;;
61397;SDS011;47267;48.130;-2.040;2024-03-22T04:05:38;1.75;;;1.52;;
61397;SDS011;47267;48.130;-2.040;2024-03-22T04:08:04;1.63;;;1.35;;
61397;SDS011;47267;48.130;-2.040;2024-03-22T04:10:30;1.63;;;1.40;;
61397;SDS011;47267;48.130;-2.040;2024-03-22T04:12:55;1.83;;;1.48;;
61397;SDS011;47267;48.130;-2.040;2024-03-22T04:15:21;1.70;;;1.40;;
61397;SDS011;47267;48.130;-2.040;2024-03-22T04:17:47;2.67;;;1.30;;
61397;SDS011;47267;48.130;-2.040;2024-03-22T04:20:12;1.52;;;1.38;;
61397;SDS011;47267;48.130;-2.040;2024-03-22T04:22:38;1.67;;;1.27;;
61397;SDS011;47267;48.130;-2.040;2024-03-22T04:25:04;1.50;;;1.30;;
61397;SDS011;47267;48.130;-2.040;2024-03-22T04:27:30;1.45;;;1.30;;
61397;SDS011;47267;48.130;-2.040;2024-03-22T04:29:56;1.42;;;1.10;;
61397;SDS011;47267;48.130;-2.040;2024-03-22T04:32:22;1.67;;;1.40;;
61397;SDS011;47267;48.130;-2.040;2024-03-22T04:34:47;1.50;;;1.08;;
61397;SDS011;47267;48.130;-2.040;2024-03-22T04:37:13;1.35;;;1.25;;
61397;SDS011;47267;48.130;-2.040;2024-03-22T04:39:41;1.70;;;1.20;;
61397;SDS011;47267;48.130;-2.040;2024-03-22T04:42:10;1.35;;;1.23;;
61397;SDS011;47267;48.130;-2.040;2024-03-22T04:44:36;2.13;;;1.40;;
61397;SDS011;47267;48.130;-2.040;2024-03-22T04:47:02;1.42;;;1.33;;
61397;SDS011;47267;48.130;-2.040;2024-03-22T04:49:27;1.52;;;1.20;;
61397;SDS011;47267;48.130;-2.040;2024-03-22T04:51:53;1.50;;;1.13;;
61397;SDS011;47267;48.130;-2.040;2024-03-22T04:54:18;1.63;;;1.30;;
61397;SDS011;47267;48.130;-2.040;2024-03-22T04:56:44;1.40;;;1.20;;
61397;SDS011;47267;48.130;-2.040;2024-03-22T04:59:10;1.92;;;1.23;;
61397;SDS011;47267;48.130;-2.040;2024-03-22T05:01:35;1.55;;;1.10;;
61397;SDS011;47267;48.130;-2.040;2024-03-22T05:04:01;1.50;;;1.30;;
61397;SDS011;47267;48.130;-2.040;2024-03-22T05:06:27;1.63;;;1.15;;
61397;SDS011;47267;48.130;-2.040;2024-03-22T05:08:52;1.65;;;1.30;;
61397;SDS011;47267;48.130;-2.040;2024-03-22T05:11:18;1.65;;;1.10;;
61397;SDS011;47267;48.130;-2.040;2024-03-22T05:13:44;1.10;;;1.00;;
61397;SDS011;47267;48.130;-2.040;2024-03-22T05:16:09;1.40;;;1.10;;
61397;SDS011;47267;48.130;-2.040;2024-03-22T05:18:36;1.45;;;1.20;;
61397;SDS011;47267;48.130;-2.040;2024-03-22T05:21:02;1.60;;;1.20;;
61397;SDS011;47267;48.130;-2.040;2024-03-22T05:23:28;1.40;;;1.20;;
61397;SDS011;47267;48.130;-2.040;2024-03-22T05:25:53;1.50;;;1.30;;
61397;SDS011;47267;48.130;-2.040;2024-03-22T05:28:19;1.92;;;1.10;;
61397;SDS011;47267;48.130;-2.040;2024-03-22T05:30:45;1.33;;;1.23;;
61397;SDS011;47267;48.130;-2.040;2024-03-22T05:33:11;1.83;;;1.17;;
61397;SDS011;47267;48.130;-2.040;2024-03-22T05:35:37;1.85;;;1.10;;
61397;SDS011;47267;48.130;-2.040;2024-03-22T05:38:03;1.30;;;1.10;;
61397;SDS011;47267;48.130;-2.040;2024-03-22T05:40:29;1.30;;;1.20;;
61397;SDS011;47267;48.130;-2.040;2024-03-22T05:42:55;1.30;;;1.20;;
61397;SDS011;47267;48.130;-2.040;2024-03-22T05:45:21;1.45;;;1.20;;
61397;SDS011;47267;48.130;-2.040;2024-03-22T05:47:47;1.77;;;1.33;;
61397;SDS011;47267;48.130;-2.040;2024-03-22T05:50:13;1.40;;;1.10;;
61397;SDS011;47267;48.130;-2.040;2024-03-22T05:52:39;1.35;;;1.20;;
61397;SDS011;47267;48.130;-2.040;2024-03-22T05:55:05;1.15;;;1.02;;
61397;SDS011;47267;48.130;-2.040;2024-03-22T05:57:31;1.30;;;1.10;;
61397;SDS011;47267;48.130;-2.040;2024-03-22T05:59:57;1.33;;;1.10;;
61397;SDS011;47267;48.130;-2.040;2024-03-22T06:02:22;1.63;;;1.20;;
61397;SDS011;47267;48.130;-2.040;2024-03-22T06:04:48;1.50;;;1.20;;
61397;SDS011;47267;48.130;-2.040;2024-03-22T06:07:14;2.05;;;1.30;;
61397;SDS011;47267;48.130;-2.040;2024-03-22T06:09:42;1.40;;;1.10;;
61397;SDS011;47267;48.130;-2.040;2024-03-22T06:12:14;1.40;;;1.23;;
61397;SDS011;47267;48.130;-2.040;2024-03-22T06:14:41;1.90;;;1.30;;
61397;SDS011;47267;48.130;-2.040;2024-03-22T06:17:11;1.63;;;1.08;;
61397;SDS011;47267;48.130;-2.040;2024-03-22T06:19:37;1.60;;;1.17;;
61397;SDS011;47267;48.130;-2.040;2024-03-22T06:22:03;1.38;;;0.95;;
61397;SDS011;47267;48.130;-2.040;2024-03-22T06:24:29;1.67;;;1.17;;
61397;SDS011;47267;48.130;-2.040;2024-03-22T06:26:54;1.40;;;1.17;;
61397;SDS011;47267;48.130;-2.040;2024-03-22T06:29:20;1.20;;;1.00;;
61397;SDS011;47267;48.130;-2.040;2024-03-22T06:31:46;1.40;;;1.10;;
61397;SDS011;47267;48.130;-2.040;2024-03-22T06:34:12;5.43;;;1.25;;
61397;SDS011;47267;48.130;-2.040;2024-03-22T06:36:38;2.17;;;1.33;;
61397;SDS011;47267;48.130;-2.040;2024-03-22T06:39:04;3.05;;;1.13;;
61397;SDS011;47267;48.130;-2.040;2024-03-22T06:41:34;5.70;;;1.50;;
61397;SDS011;47267;48.130;-2.040;2024-03-22T06:44:00;1.83;;;1.20;;
61397;SDS011;47267;48.130;-2.040;2024-03-22T06:46:26;2.55;;;1.52;;
61397;SDS011;47267;48.130;-2.040;2024-03-22T06:48:53;2.03;;;1.35;;
61397;SDS011;47267;48.130;-2.040;2024-03-22T06:51:19;4.35;;;1.73;;
61397;SDS011;47267;48.130;-2.040;2024-03-22T06:53:45;2.97;;;2.17;;
61397;SDS011;47267;48.130;-2.040;2024-03-22T06:56:11;4.40;;;2.10;;
61397;SDS011;47267;48.130;-2.040;2024-03-22T06:58:37;3.20;;;2.33;;
61397;SDS011;47267;48.130;-2.040;2024-03-22T07:01:05;3.03;;;2.10;;
61397;SDS011;47267;48.130;-2.040;2024-03-22T07:03:31;5.07;;;2.20;;
61397;SDS011;47267;48.130;-2.040;2024-03-22T07:05:57;3.88;;;2.30;;
61397;SDS011;47267;48.130;-2.040;2024-03-22T07:08:23;2.85;;;2.03;;
61397;SDS011;47267;48.130;-2.040;2024-03-22T07:10:50;3.05;;;2.50;;
61397;SDS011;47267;48.130;-2.040;2024-03-22T07:13:16;4.65;;;1.92;;
61397;SDS011;47267;48.130;-2.040;2024-03-22T07:15:43;4.30;;;1.90;;
61397;SDS011;47267;48.130;-2.040;2024-03-22T07:18:12;3.22;;;1.60;;
61397;SDS011;47267;48.130;-2.040;2024-03-22T07:20:39;2.85;;;1.77;;
61397;SDS011;47267;48.130;-2.040;2024-03-22T07:23:05;5.45;;;1.77;;
61397;SDS011;47267;48.130;-2.040;2024-03-22T07:25:30;4.22;;;1.55;;
61397;SDS011;47267;48.130;-2.040;2024-03-22T07:27:56;4.05;;;1.40;;
61397;SDS011;47267;48.130;-2.040;2024-03-22T07:30:22;2.75;;;1.42;;
61397;SDS011;47267;48.130;-2.040;2024-03-22T07:32:48;3.42;;;1.45;;
61397;SDS011;47267;48.130;-2.040;2024-03-22T07:35:13;7.93;;;1.70;;
61397;SDS011;47267;48.130;-2.040;2024-03-22T07:37:39;4.10;;;1.50;;
61397;SDS011;47267;48.130;-2.040;2024-03-22T07:40:05;2.78;;;1.35;;
61397;SDS011;47267;48.130;-2.040;2024-03-22T07:42:31;3.85;;;1.60;;
61397;SDS011;47267;48.130;-2.040;2024-03-22T07:44:57;6.90;;;1.60;;
61397;SDS011;47267;48.130;-2.040;2024-03-22T07:47:23;5.18;;;1.40;;
61397;SDS011;47267;48.130;-2.040;2024-03-22T07:49:48;4.75;;;1.60;;
61397;SDS011;47267;48.130;-2.040;2024-03-22T07:52:14;2.17;;;1.20;;
61397;SDS011;47267;48.130;-2.040;2024-03-22T07:54:39;2.35;;;1.40;;
61397;SDS011;47267;48.130;-2.040;2024-03-22T07:57:05;2.35;;;1.40;;
61397;SDS011;47267;48.130;-2.040;2024-03-22T07:59:31;2.72;;;1.17;;
61397;SDS011;47267;48.130;-2.040;2024-03-22T08:01:57;2.83;;;1.30;;
61397;SDS011;47267;48.130;-2.040;2024-03-22T08:04:23;3.15;;;1.40;;
61397;SDS011;47267;48.130;-2.040;2024-03-22T08:06:54;2.50;;;1.63;;
61397;SDS011;47267;48.130;-2.040;2024-03-22T08:09:20;2.05;;;1.38;;
61397;SDS011;47267;48.130;-2.040;2024-03-22T08:11:46;2.90;;;1.95;;
61397;SDS011;47267;48.130;-2.040;2024-03-22T08:14:13;3.17;;;1.52;;
61397;SDS011;47267;48.130;-2.040;2024-03-22T08:16:38;3.95;;;1.30;;
61397;SDS011;47267;48.130;-2.040;2024-03-22T08:19:04;5.43;;;1.50;;
61397;SDS011;47267;48.130;-2.040;2024-03-22T08:21:30;2.67;;;1.60;;
61397;SDS011;47267;48.130;-2.040;2024-03-22T08:23:55;3.75;;;1.92;;
61397;SDS011;47267;48.130;-2.040;2024-03-22T08:26:21;2.20;;;1.50;;
61397;SDS011;47267;48.130;-2.040;2024-03-22T08:28:47;2.78;;;1.60;;
61397;SDS011;47267;48.130;-2.040;2024-03-22T08:31:13;3.13;;;1.35;;
61397;SDS011;47267;48.130;-2.040;2024-03-22T08:33:39;2.67;;;1.48;;
61397;SDS011;47267;48.130;-2.040;2024-03-22T08:36:05;1.77;;;1.38;;
61397;SDS011;47267;48.130;-2.040;2024-03-22T08:38:31;3.88;;;1.40;;
61397;SDS011;47267;48.130;-2.040;2024-03-22T08:40:56;3.60;;;1.50;;
61397;SDS011;47267;48.130;-2.040;2024-03-22T08:43:22;2.33;;;1.40;;
61397;SDS011;47267;48.130;-2.040;2024-03-22T08:45:50;2.92;;;1.52;;
61397;SDS011;47267;48.130;-2.040;2024-03-22T08:48:16;2.35;;;1.58;;
61397;SDS011;47267;48.130;-2.040;2024-03-22T08:50:43;2.03;;;1.33;;
61397;SDS011;47267;48.130;-2.040;2024-03-22T08:53:09;2.28;;;1.50;;
61397;SDS011;47267;48.130;-2.040;2024-03-22T08:55:34;3.05;;;1.50;;
61397;SDS011;47267;48.130;-2.040;2024-03-22T08:58:00;2.83;;;1.27;;
61397;SDS011;47267;48.130;-2.040;2024-03-22T09:00:27;3.00;;;1.77;;
61397;SDS011;47267;48.130;-2.040;2024-03-22T09:02:53;2.10;;;1.20;;
61397;SDS011;47267;48.130;-2.040;2024-03-22T09:05:18;3.35;;;1.58;;
61397;SDS011;47267;48.130;-2.040;2024-03-22T09:07:44;1.92;;;1.40;;
61397;SDS011;47267;48.130;-2.040;2024-03-22T09:10:10;4.35;;;1.80;;
61397;SDS011;47267;48.130;-2.040;2024-03-22T09:12:36;3.67;;;2.08;;
61397;SDS011;47267;48.130;-2.040;2024-03-22T09:15:02;2.97;;;2.03;;
61397;SDS011;47267;48.130;-2.040;2024-03-22T09:17:28;3.05;;;1.80;;
61397;SDS011;47267;48.130;-2.040;2024-03-22T09:19:54;2.85;;;1.90;;
61397;SDS011;47267;48.130;-2.040;2024-03-22T09:22:20;2.53;;;1.77;;
61397;SDS011;47267;48.130;-2.040;2024-03-22T09:24:46;2.50;;;1.88;;
61397;SDS011;47267;48.130;-2.040;2024-03-22T09:27:11;1.85;;;1.48;;
61397;SDS011;47267;48.130;-2.040;2024-03-22T09:29:37;5.05;;;1.90;;
61397;SDS011;47267;48.130;-2.040;2024-03-22T09:32:03;4.70;;;1.85;;
61397;SDS011;47267;48.130;-2.040;2024-03-22T09:34:29;3.80;;;1.83;;
61397;SDS011;47267;48.130;-2.040;2024-03-22T09:36:55;3.28;;;1.48;;
61397;SDS011;47267;48.130;-2.040;2024-03-22T09:39:21;4.22;;;2.08;;
61397;SDS011;47267;48.130;-2.040;2024-03-22T09:41:47;6.38;;;1.65;;
61397;SDS011;47267;48.130;-2.040;2024-03-22T09:44:15;2.65;;;1.73;;
61397;SDS011;47267;48.130;-2.040;2024-03-22T09:46:44;3.08;;;1.80;;
61397;SDS011;47267;48.130;-2.040;2024-03-22T09:49:11;2.10;;;1.60;;
61397;SDS011;47267;48.130;-2.040;2024-03-22T09:51:41;2.67;;;1.60;;
61397;SDS011;47267;48.130;-2.040;2024-03-22T09:54:09;2.58;;;1.58;;
61397;SDS011;47267;48.130;-2.040;2024-03-22T09:56:40;3.20;;;1.77;;
61397;SDS011;47267;48.130;-2.040;2024-03-22T09:59:08;2.55;;;1.92;;
61397;SDS011;47267;48.130;-2.040;2024-03-22T10:01:35;2.13;;;1.60;;
61397;SDS011;47267;48.130;-2.040;2024-03-22T10:04:02;2.08;;;1.50;;
61397;SDS011;47267;48.130;-2.040;2024-03-22T10:06:28;2.83;;;1.70;;
61397;SDS011;47267;48.130;-2.040;2024-03-22T10:08:57;4.03;;;1.42;;
61397;SDS011;47267;48.130;-2.040;2024-03-22T10:11:27;2.90;;;1.88;;
61397;SDS011;47267;48.130;-2.040;2024-03-22T10:13:53;2.80;;;1.63;;
61397;SDS011;47267;48.130;-2.040;2024-03-22T10:16:20;2.22;;;1.77;;
61397;SDS011;47267;48.130;-2.040;2024-03-22T10:18:49;2.13;;;1.50;;
61397;SDS011;47267;48.130;-2.040;2024-03-22T10:21:18;2.40;;;1.90;;
61397;SDS011;47267;48.130;-2.040;2024-03-22T10:23:44;1.65;;;1.55;;
61397;SDS011;47267;48.130;-2.040;2024-03-22T10:26:12;2.28;;;1.35;;
61397;SDS011;47267;48.130;-2.040;2024-03-22T10:28:43;1.55;;;1.30;;
61397;SDS011;47267;48.130;-2.040;2024-03-22T10:31:11;2.00;;;1.73;;
61397;SDS011;47267;48.130;-2.040;2024-03-22T10:33:37;2.13;;;1.60;;
61397;SDS011;47267;48.130;-2.040;2024-03-22T10:36:05;3.10;;;1.70;;
61397;SDS011;47267;48.130;-2.040;2024-03-22T10:38:32;2.40;;;1.70;;
61397;SDS011;47267;48.130;-2.040;2024-03-22T10:40:58;2.58;;;1.95;;
61397;SDS011;47267;48.130;-2.040;2024-03-22T10:43:25;1.92;;;1.63;;
61397;SDS011;47267;48.130;-2.040;2024-03-22T10:45:51;1.67;;;1.30;;
61397;SDS011;47267;48.130;-2.040;2024-03-22T10:48:19;2.67;;;1.73;;
61397;SDS011;47267;48.130;-2.040;2024-03-22T10:50:49;2.22;;;1.70;;
61397;SDS011;47267;48.130;-2.040;2024-03-22T10:53:19;1.60;;;1.48;;
61397;SDS011;47267;48.130;-2.040;2024-03-22T10:55:49;2.13;;;1.77;;
61397;SDS011;47267;48.130;-2.040;2024-03-22T10:58:16;2.08;;;1.30;;
61397;SDS011;47267;48.130;-2.040;2024-03-22T11:00:43;1.70;;;1.35;;
61397;SDS011;47267;48.130;-2.040;2024-03-22T11:03:09;2.50;;;1.55;;
61397;SDS011;47267;48.130;-2.040;2024-03-22T11:05:45;3.05;;;1.67;;
61397;SDS011;47267;48.130;-2.040;2024-03-22T11:08:11;1.90;;;1.55;;
61397;SDS011;47267;48.130;-2.040;2024-03-22T11:10:38;2.50;;;1.67;;
61397;SDS011;47267;48.130;-2.040;2024-03-22T11:13:04;1.95;;;1.55;;
61397;SDS011;47267;48.130;-2.040;2024-03-22T11:15:32;3.20;;;1.45;;
61397;SDS011;47267;48.130;-2.040;2024-03-22T11:17:58;2.28;;;1.50;;
61397;SDS011;47267;48.130;-2.040;2024-03-22T11:20:27;2.80;;;1.58;;
61397;SDS011;47267;48.130;-2.040;2024-03-22T11:22:52;6.68;;;1.40;;
61397;SDS011;47267;48.130;-2.040;2024-03-22T11:25:19;2.60;;;1.60;;
61397;SDS011;47267;48.130;-2.040;2024-03-22T11:27:48;2.13;;;1.70;;
61397;SDS011;47267;48.130;-2.040;2024-03-22T11:30:17;3.92;;;1.80;;
61397;SDS011;47267;48.130;-2.040;2024-03-22T11:32:43;2.35;;;1.48;;
61397;SDS011;47267;48.130;-2.040;2024-03-22T11:35:10;1.85;;;1.40;;
61397;SDS011;47267;48.130;-2.040;2024-03-22T11:37:38;2.72;;;1.63;;
61397;SDS011;47267;48.130;-2.040;2024-03-22T11:40:06;2.22;;;1.35;;
61397;SDS011;47267;48.130;-2.040;2024-03-22T11:42:44;1.83;;;1.60;;
61397;SDS011;47267;48.130;-2.040;2024-03-22T11:45:16;2.08;;;1.65;;
61397;SDS011;47267;48.130;-2.040;2024-03-22T11:47:48;2.05;;;1.40;;
61397;SDS011;47267;48.130;-2.040;2024-03-22T11:50:15;2.05;;;1.63;;
61397;SDS011;47267;48.130;-2.040;2024-03-22T11:52:42;2.17;;;1.45;;
61397;SDS011;47267;48.130;-2.040;2024-03-22T11:55:12;1.88;;;1.50;;
61397;SDS011;47267;48.130;-2.040;2024-03-22T11:57:47;2.20;;;1.40;;
61397;SDS011;47267;48.130;-2.040;2024-03-22T12:00:15;1.88;;;1.50;;
61397;SDS011;47267;48.130;-2.040;2024-03-22T12:02:42;1.95;;;1.45;;
61397;SDS011;47267;48.130;-2.040;2024-03-22T12:05:10;3.78;;;1.50;;
61397;SDS011;47267;48.130;-2.040;2024-03-22T12:07:37;3.22;;;1.65;;
61397;SDS011;47267;48.130;-2.040;2024-03-22T12:10:05;2.22;;;1.50;;
61397;SDS011;47267;48.130;-2.040;2024-03-22T12:12:32;2.25;;;1.40;;
61397;SDS011;47267;48.130;-2.040;2024-03-22T12:15:04;3.58;;;1.33;;
61397;SDS011;47267;48.130;-2.040;2024-03-22T12:17:30;2.08;;;1.40;;
61397;SDS011;47267;48.130;-2.040;2024-03-22T12:19:55;2.15;;;1.50;;
61397;SDS011;47267;48.130;-2.040;2024-03-22T12:22:21;1.73;;;1.40;;
61397;SDS011;47267;48.130;-2.040;2024-03-22T12:24:47;4.85;;;1.88;;
61397;SDS011;47267;48.130;-2.040;2024-03-22T12:27:13;1.65;;;1.45;;
61397;SDS011;47267;48.130;-2.040;2024-03-22T12:29:39;2.13;;;1.30;;
61397;SDS011;47267;48.130;-2.040;2024-03-22T12:32:04;1.73;;;1.35;;
61397;SDS011;47267;48.130;-2.040;2024-03-22T12:34:31;2.03;;;1.50;;
61397;SDS011;47267;48.130;-2.040;2024-03-22T12:36:58;3.88;;;1.50;;
61397;SDS011;47267;48.130;-2.040;2024-03-22T12:39:27;1.80;;;1.30;;
61397;SDS011;47267;48.130;-2.040;2024-03-22T12:41:53;1.88;;;1.38;;
61397;SDS011;47267;48.130;-2.040;2024-03-22T12:44:19;1.92;;;1.48;;
61397;SDS011;47267;48.130;-2.040;2024-03-22T12:46:45;3.03;;;1.48;;
61397;SDS011;47267;48.130;-2.040;2024-03-22T12:49:11;3.33;;;1.38;;
61397;SDS011;47267;48.130;-2.040;2024-03-22T12:51:37;1.70;;;1.48;;
61397;SDS011;47267;48.130;-2.040;2024-03-22T12:54:03;1.88;;;1.63;;
61397;SDS011;47267;48.130;-2.040;2024-03-22T12:56:30;2.20;;;1.50;;
61397;SDS011;47267;48.130;-2.040;2024-03-22T12:58:56;2.63;;;1.40;;
61397;SDS011;47267;48.130;-2.040;2024-03-22T13:01:22;1.55;;;1.45;;
61397;SDS011;47267;48.130;-2.040;2024-03-22T13:03:48;1.52;;;1.30;;
61397;SDS011;47267;48.130;-2.040;2024-03-22T13:06:13;1.98;;;1.38;;
61397;SDS011;47267;48.130;-2.040;2024-03-22T13:08:39;2.78;;;1.45;;
61397;SDS011;47267;48.130;-2.040;2024-03-22T13:11:05;2.40;;;1.45;;
61397;SDS011;47267;48.130;-2.040;2024-03-22T13:13:34;1.83;;;1.38;;
61397;SDS011;47267;48.130;-2.040;2024-03-22T13:16:02;2.42;;;1.50;;
61397;SDS011;47267;48.130;-2.040;2024-03-22T13:18:29;1.92;;;1.58;;
61397;SDS011;47267;48.130;-2.040;2024-03-22T13:20:55;2.00;;;1.45;;
61397;SDS011;47267;48.130;-2.040;2024-03-22T13:23:20;1.70;;;1.55;;
61397;SDS011;47267;48.130;-2.040;2024-03-22T13:25:46;2.10;;;1.42;;
61397;SDS011;47267;48.130;-2.040;2024-03-22T13:28:12;2.15;;;1.60;;
61397;SDS011;47267;48.130;-2.040;2024-03-22T13:30:38;2.50;;;1.73;;
61397;SDS011;47267;48.130;-2.040;2024-03-22T13:33:05;2.28;;;1.60;;
61397;SDS011;47267;48.130;-2.040;2024-03-22T13:35:33;2.55;;;1.45;;
61397;SDS011;47267;48.130;-2.040;2024-03-22T13:37:59;2.58;;;1.50;;
61397;SDS011;47267;48.130;-2.040;2024-03-22T13:40:25;2.22;;;1.30;;
61397;SDS011;47267;48.130;-2.040;2024-03-22T13:42:54;2.10;;;1.50;;
61397;SDS011;47267;48.130;-2.040;2024-03-22T13:45:20;3.30;;;1.52;;
61397;SDS011;47267;48.130;-2.040;2024-03-22T13:47:46;2.95;;;1.42;;
61397;SDS011;47267;48.130;-2.040;2024-03-22T13:50:11;2.35;;;1.40;;
61397;SDS011;47267;48.130;-2.040;2024-03-22T13:52:37;2.30;;;1.70;;
61397;SDS011;47267;48.130;-2.040;2024-03-22T13:55:03;2.10;;;1.50;;
61397;SDS011;47267;48.130;-2.040;2024-03-22T13:57:29;2.35;;;1.70;;
61397;SDS011;47267;48.130;-2.040;2024-03-22T13:59:55;2.03;;;1.42;;
61397;SDS011;47267;48.130;-2.040;2024-03-22T14:02:21;1.85;;;1.27;;
61397;SDS011;47267;48.130;-2.040;2024-03-22T14:04:46;2.85;;;1.60;;
61397;SDS011;47267;48.130;-2.040;2024-03-22T14:07:12;1.80;;;1.40;;
61397;SDS011;47267;48.130;-2.040;2024-03-22T14:09:38;1.85;;;1.33;;
61397;SDS011;47267;48.130;-2.040;2024-03-22T14:12:05;1.58;;;1.10;;
61397;SDS011;47267;48.130;-2.040;2024-03-22T14:14:31;2.45;;;1.38;;
61397;SDS011;47267;48.130;-2.040;2024-03-22T14:16:57;2.10;;;1.60;;
61397;SDS011;47267;48.130;-2.040;2024-03-22T14:19:23;1.83;;;1.40;;
61397;SDS011;47267;48.130;-2.040;2024-03-22T14:21:49;2.20;;;1.60;;
61397;SDS011;47267;48.130;-2.040;2024-03-22T14:24:15;2.92;;;1.55;;
61397;SDS011;47267;48.130;-2.040;2024-03-22T14:26:41;2.15;;;1.38;;
61397;SDS011;47267;48.130;-2.040;2024-03-22T14:29:10;2.40;;;1.60;;